sensor_id;sensor_type;location;lat;lon;timestamp;pressure;altitude;pressure_sealevel;temperature;humidity
6829;BME280;17930;48.592;8.868;2023-04-30T00:00:25;97001.34;;;11.20;100.00
6829;BME280;17930;48.592;8.868;2023-04-30T00:02:52;97006.31;;;11.16;100.00
6829;BME280;17930;48.592;8.868;2023-04-30T00:05:24;97004.47;;;11.22;100.00
6829;BME280;17930;48.592;8.868;2023-04-30T00:07:52;96998.44;;;11.21;100.00
6829;BME280;17930;48.592;8.868;2023-04-30T00:10:20;96991.97;;;11.14;100.00
6829;BME280;17930;48.592;8.868;2023-04-30T00:12:47;96997.72;;;11.11;100.00
6829;BME280;17930;48.592;8.868;2023-04-30T00:15:14;96996.19;;;11.05;100.00
6829;BME280;17930;48.592;8.868;2023-04-30T00:17:40;96998.00;;;11.04;100.00
6829;BME280;17930;48.592;8.868;2023-04-30T00:20:08;96990.72;;;11.01;100.00
6829;BME280;17930;48.592;8.868;2023-04-30T00:22:36;97000.66;;;10.99;100.00
6829;BME280;17930;48.592;8.868;2023-04-30T00:25:05;97001.72;;;10.93;100.00
6829;BME280;17930;48.592;8.868;2023-04-30T00:27:32;96999.38;;;10.92;100.00
6829;BME280;17930;48.592;8.868;2023-04-30T00:29:59;97008.78;;;10.88;100.00
6829;BME280;17930;48.592;8.868;2023-04-30T00:32:26;97006.16;;;10.98;100.00
6829;BME280;17930;48.592;8.868;2023-04-30T00:34:52;97010.88;;;10.86;100.00
6829;BME280;17930;48.592;8.868;2023-04-30T00:37:19;97007.75;;;10.84;100.00
6829;BME280;17930;48.592;8.868;2023-04-30T00:39:46;96994.66;;;10.94;100.00
6829;BME280;17930;48.592;8.868;2023-04-30T00:42:14;97003.00;;;10.96;100.00
6829;BME280;17930;48.592;8.868;2023-04-30T00:44:41;97004.56;;;11.02;100.00
6829;BME280;17930;48.592;8.868;2023-04-30T00:47:08;97003.03;;;10.91;100.00
6829;BME280;17930;48.592;8.868;2023-04-30T00:49:35;97005.13;;;10.89;100.00
6829;BME280;17930;48.592;8.868;2023-04-30T00:52:01;97009.56;;;10.88;100.00
6829;BME280;17930;48.592;8.868;2023-04-30T00:54:28;97008.50;;;10.94;100.00
6829;BME280;17930;48.592;8.868;2023-04-30T00:56:55;97007.22;;;10.92;100.00
6829;BME280;17930;48.592;8.868;2023-04-30T00:59:23;97006.16;;;10.93;100.00
6829;BME280;17930;48.592;8.868;2023-04-30T01:01:50;97012.91;;;10.99;100.00
6829;BME280;17930;48.592;8.868;2023-04-30T01:04:17;97005.06;;;10.99;100.00
6829;BME280;17930;48.592;8.868;2023-04-30T01:06:44;97008.72;;;11.08;100.00
6829;BME280;17930;48.592;8.868;2023-04-30T01:09:11;97001.91;;;11.07;100.00
6829;BME280;17930;48.592;8.868;2023-04-30T01:11:47;97002.09;;;11.30;100.00
6829;BME280;17930;48.592;8.868;2023-04-30T01:14:22;96999.66;;;11.48;100.00
6829;BME280;17930;48.592;8.868;2023-04-30T01:16:59;96999.47;;;11.30;100.00
6829;BME280;17930;48.592;8.868;2023-04-30T01:19:37;96999.56;;;11.10;100.00
6829;BME280;17930;48.592;8.868;2023-04-30T01:22:09;97005.06;;;10.99;100.00
6829;BME280;17930;48.592;8.868;2023-04-30T01:24:53;97000.94;;;10.98;100.00
6829;BME280;17930;48.592;8.868;2023-04-30T01:27:31;97005.34;;;11.02;100.00
6829;BME280;17930;48.592;8.868;2023-04-30T01:30:07;96991.53;;;11.02;100.00
6829;BME280;17930;48.592;8.868;2023-04-30T01:32:34;96991.47;;;11.07;100.00
6829;BME280;17930;48.592;8.868;2023-04-30T01:35:00;96988.81;;;11.22;100.00
6829;BME280;17930;48.592;8.868;2023-04-30T01:37:32;96994.59;;;11.14;100.00
6829;BME280;17930;48.592;8.868;2023-04-30T01:40:13;96987.34;;;11.01;100.00
6829;BME280;17930;48.592;8.868;2023-04-30T01:42:52;96996.22;;;11.00;100.00
6829;BME280;17930;48.592;8.868;2023-04-30T01:45:34;96989.41;;;10.99;100.00
6829;BME280;17930;48.592;8.868;2023-04-30T01:48:17;96989.94;;;10.96;100.00
6829;BME280;17930;48.592;8.868;2023-04-30T01:50:50;96993.63;;;10.95;100.00
6829;BME280;17930;48.592;8.868;2023-04-30T01:53:20;96994.41;;;11.00;100.00
6829;BME280;17930;48.592;8.868;2023-04-30T01:55:50;96985.22;;;11.03;100.00
6829;BME280;17930;48.592;8.868;2023-04-30T01:58:22;96997.28;;;10.94;100.00
6829;BME280;17930;48.592;8.868;2023-04-30T02:00:51;96992.50;;;11.11;100.00
6829;BME280;17930;48.592;8.868;2023-04-30T02:03:17;96992.84;;;10.94;100.00
6829;BME280;17930;48.592;8.868;2023-04-30T02:05:45;96994.66;;;10.94;100.00
6829;BME280;17930;48.592;8.868;2023-04-30T02:08:12;96985.75;;;11.05;100.00
6829;BME280;17930;48.592;8.868;2023-04-30T02:10:38;96972.44;;;11.01;100.00
6829;BME280;17930;48.592;8.868;2023-04-30T02:13:05;96974.78;;;11.08;100.00
6829;BME280;17930;48.592;8.868;2023-04-30T02:15:32;96979.47;;;11.11;100.00
6829;BME280;17930;48.592;8.868;2023-04-30T02:17:59;96973.75;;;11.04;100.00
6829;BME280;17930;48.592;8.868;2023-04-30T02:20:26;96977.44;;;10.93;100.00
6829;BME280;17930;48.592;8.868;2023-04-30T02:22:53;96974.88;;;10.88;100.00
6829;BME280;17930;48.592;8.868;2023-04-30T02:25:19;96978.00;;;10.85;100.00
6829;BME280;17930;48.592;8.868;2023-04-30T02:27:46;96984.50;;;10.92;100.00
6829;BME280;17930;48.592;8.868;2023-04-30T02:30:14;96976.47;;;10.74;100.00
6829;BME280;17930;48.592;8.868;2023-04-30T02:32:41;96982.75;;;10.78;100.00
6829;BME280;17930;48.592;8.868;2023-04-30T02:35:09;96977.53;;;10.78;100.00
6829;BME280;17930;48.592;8.868;2023-04-30T02:37:36;96980.66;;;10.70;100.00
6829;BME280;17930;48.592;8.868;2023-04-30T02:40:03;96986.38;;;10.77;100.00
6829;BME280;17930;48.592;8.868;2023-04-30T02:42:31;96990.56;;;10.78;100.00
6829;BME280;17930;48.592;8.868;2023-04-30T02:44:57;96992.91;;;10.74;100.00
6829;BME280;17930;48.592;8.868;2023-04-30T02:47:24;96990.00;;;10.91;100.00
6829;BME280;17930;48.592;8.868;2023-04-30T02:49:50;96987.66;;;10.89;100.00
6829;BME280;17930;48.592;8.868;2023-04-30T02:52:18;96990.03;;;10.76;100.00
6829;BME280;17930;48.592;8.868;2023-04-30T02:54:45;96991.63;;;10.67;100.00
6829;BME280;17930;48.592;8.868;2023-04-30T02:57:11;96990.56;;;10.73;100.00
6829;BME280;17930;48.592;8.868;2023-04-30T02:59:38;96987.22;;;10.58;100.00
6829;BME280;17930;48.592;8.868;2023-04-30T03:02:04;96992.13;;;10.74;100.00
6829;BME280;17930;48.592;8.868;2023-04-30T03:04:31;96992.16;;;10.59;100.00
6829;BME280;17930;48.592;8.868;2023-04-30T03:06:58;96995.28;;;10.66;100.00
6829;BME280;17930;48.592;8.868;2023-04-30T03:09:26;96996.88;;;10.57;100.00
6829;BME280;17930;48.592;8.868;2023-04-30T03:11:52;96997.91;;;10.56;100.00
6829;BME280;17930;48.592;8.868;2023-04-30T03:14:19;96997.41;;;10.49;100.00
6829;BME280;17930;48.592;8.868;2023-04-30T03:16:45;96990.63;;;10.53;100.00
6829;BME280;17930;48.592;8.868;2023-04-30T03:19:12;96988.56;;;10.55;100.00
6829;BME280;17930;48.592;8.868;2023-04-30T03:21:39;96986.44;;;10.57;100.00
6829;BME280;17930;48.592;8.868;2023-04-30T03:24:06;96984.88;;;10.56;100.00
6829;BME280;17930;48.592;8.868;2023-04-30T03:26:34;96981.50;;;10.51;100.00
6829;BME280;17930;48.592;8.868;2023-04-30T03:29:00;96981.78;;;10.44;100.00
6829;BME280;17930;48.592;8.868;2023-04-30T03:31:27;96984.41;;;10.29;100.00
6829;BME280;17930;48.592;8.868;2023-04-30T03:33:53;96984.16;;;10.36;100.00
6829;BME280;17930;48.592;8.868;2023-04-30T03:36:20;96981.53;;;10.31;100.00
6829;BME280;17930;48.592;8.868;2023-04-30T03:38:47;96975.59;;;10.25;100.00
6829;BME280;17930;48.592;8.868;2023-04-30T03:41:13;96986.00;;;10.21;100.00
6829;BME280;17930;48.592;8.868;2023-04-30T03:43:41;96979.22;;;10.20;100.00
6829;BME280;17930;48.592;8.868;2023-04-30T03:46:07;96976.88;;;10.23;100.00
6829;BME280;17930;48.592;8.868;2023-04-30T03:48:34;96984.97;;;10.17;100.00
6829;BME280;17930;48.592;8.868;2023-04-30T03:51:01;96972.47;;;10.09;100.00
6829;BME280;17930;48.592;8.868;2023-04-30T03:53:27;96981.06;;;10.14;100.00
6829;BME280;17930;48.592;8.868;2023-04-30T03:55:54;96978.94;;;10.21;100.00
6829;BME280;17930;48.592;8.868;2023-04-30T03:58:21;96974.50;;;10.26;100.00
6829;BME280;17930;48.592;8.868;2023-04-30T04:00:49;96980.00;;;10.15;100.00
6829;BME280;17930;48.592;8.868;2023-04-30T04:03:15;96982.06;;;10.28;100.00
6829;BME280;17930;48.592;8.868;2023-04-30T04:05:42;96981.28;;;10.22;100.00
6829;BME280;17930;48.592;8.868;2023-04-30T04:08:10;96984.19;;;10.16;100.00
6829;BME280;17930;48.592;8.868;2023-04-30T04:10:37;96982.88;;;10.19;100.00
6829;BME280;17930;48.592;8.868;2023-04-30T04:13:04;96978.97;;;10.26;100.00
6829;BME280;17930;48.592;8.868;2023-04-30T04:15:31;96983.41;;;10.11;100.00
6829;BME280;17930;48.592;8.868;2023-04-30T04:17:59;96987.59;;;10.12;100.00
6829;BME280;17930;48.592;8.868;2023-04-30T04:20:25;96988.09;;;10.14;100.00
6829;BME280;17930;48.592;8.868;2023-04-30T04:22:54;96994.88;;;10.10;100.00
6829;BME280;17930;48.592;8.868;2023-04-30T04:25:20;96993.59;;;10.07;100.00
6829;BME280;17930;48.592;8.868;2023-04-30T04:27:49;97001.91;;;10.14;100.00
6829;BME280;17930;48.592;8.868;2023-04-30T04:30:16;97000.88;;;10.20;100.00
6829;BME280;17930;48.592;8.868;2023-04-30T04:32:43;96989.66;;;10.10;100.00
6829;BME280;17930;48.592;8.868;2023-04-30T04:35:15;96995.94;;;10.09;100.00
6829;BME280;17930;48.592;8.868;2023-04-30T04:37:43;97000.88;;;10.20;100.00
6829;BME280;17930;48.592;8.868;2023-04-30T04:40:10;97006.09;;;10.10;100.00
6829;BME280;17930;48.592;8.868;2023-04-30T04:42:37;97000.06;;;10.10;100.00
6829;BME280;17930;48.592;8.868;2023-04-30T04:45:04;97007.66;;;10.06;100.00
6829;BME280;17930;48.592;8.868;2023-04-30T04:47:32;97008.94;;;10.19;100.00
6829;BME280;17930;48.592;8.868;2023-04-30T04:49:58;97009.19;;;10.27;100.00
6829;BME280;17930;48.592;8.868;2023-04-30T04:52:26;97003.19;;;10.31;100.00
6829;BME280;17930;48.592;8.868;2023-04-30T04:54:53;97007.13;;;10.34;100.00
6829;BME280;17930;48.592;8.868;2023-04-30T04:57:20;97007.88;;;10.29;100.00
6829;BME280;17930;48.592;8.868;2023-04-30T04:59:46;97006.31;;;10.33;100.00
6829;BME280;17930;48.592;8.868;2023-04-30T05:02:13;97016.72;;;10.43;100.00
6829;BME280;17930;48.592;8.868;2023-04-30T05:04:39;97013.06;;;10.54;100.00
6829;BME280;17930;48.592;8.868;2023-04-30T05:07:06;97007.28;;;10.72;100.00
6829;BME280;17930;48.592;8.868;2023-04-30T05:09:34;97008.75;;;10.93;100.00
6829;BME280;17930;48.592;8.868;2023-04-30T05:12:01;97006.16;;;10.93;100.00
6829;BME280;17930;48.592;8.868;2023-04-30T05:14:28;97008.03;;;10.82;100.00
6829;BME280;17930;48.592;8.868;2023-04-30T05:16:54;97011.63;;;10.96;100.00
6829;BME280;17930;48.592;8.868;2023-04-30T05:19:21;97008.28;;;10.81;100.00
6829;BME280;17930;48.592;8.868;2023-04-30T05:21:48;97009.13;;;10.67;100.00
6829;BME280;17930;48.592;8.868;2023-04-30T05:24:15;97008.75;;;10.93;100.00
6829;BME280;17930;48.592;8.868;2023-04-30T05:26:43;97008.66;;;11.18;100.00
6829;BME280;17930;48.592;8.868;2023-04-30T05:29:10;97005.78;;;11.19;100.00
6829;BME280;17930;48.592;8.868;2023-04-30T05:31:37;96999.53;;;11.20;100.00
6829;BME280;17930;48.592;8.868;2023-04-30T05:34:03;96994.31;;;11.15;100.00
6829;BME280;17930;48.592;8.868;2023-04-30T05:36:30;97001.59;;;11.23;100.00
6829;BME280;17930;48.592;8.868;2023-04-30T05:38:57;97002.28;;;11.48;100.00
6829;BME280;17930;48.592;8.868;2023-04-30T05:41:24;96997.00;;;11.53;100.00
6829;BME280;17930;48.592;8.868;2023-04-30T05:43:52;97009.56;;;11.51;100.00
6829;BME280;17930;48.592;8.868;2023-04-30T05:46:18;97005.44;;;11.78;100.00
6829;BME280;17930;48.592;8.868;2023-04-30T05:48:45;96997.69;;;12.02;100.00
6829;BME280;17930;48.592;8.868;2023-04-30T05:51:12;97007.78;;;12.13;100.00
6829;BME280;17930;48.592;8.868;2023-04-30T05:53:39;97002.34;;;12.05;100.00
6829;BME280;17930;48.592;8.868;2023-04-30T05:56:06;97003.75;;;12.26;100.00
6829;BME280;17930;48.592;8.868;2023-04-30T05:58:33;97005.72;;;12.38;100.00
6829;BME280;17930;48.592;8.868;2023-04-30T06:01:07;97007.47;;;12.20;100.00
6829;BME280;17930;48.592;8.868;2023-04-30T06:03:35;97003.16;;;12.33;100.00
6829;BME280;17930;48.592;8.868;2023-04-30T06:06:02;97004.50;;;12.31;100.00
6829;BME280;17930;48.592;8.868;2023-04-30T06:08:29;96999.31;;;12.26;100.00
6829;BME280;17930;48.592;8.868;2023-04-30T06:10:55;97003.72;;;12.30;100.00
6829;BME280;17930;48.592;8.868;2023-04-30T06:13:22;96995.16;;;12.48;100.00
6829;BME280;17930;48.592;8.868;2023-04-30T06:15:49;97000.63;;;12.52;100.00
6829;BME280;17930;48.592;8.868;2023-04-30T06:18:17;96998.50;;;12.54;100.00
6829;BME280;17930;48.592;8.868;2023-04-30T06:20:44;97009.78;;;12.54;100.00
6829;BME280;17930;48.592;8.868;2023-04-30T06:23:11;96996.41;;;12.79;100.00
6829;BME280;17930;48.592;8.868;2023-04-30T06:25:38;96994.53;;;12.84;100.00
6829;BME280;17930;48.592;8.868;2023-04-30T06:28:06;96997.94;;;13.27;100.00
6829;BME280;17930;48.592;8.868;2023-04-30T06:30:35;96993.72;;;13.31;100.00
6829;BME280;17930;48.592;8.868;2023-04-30T06:33:02;96997.25;;;13.58;100.00
6829;BME280;17930;48.592;8.868;2023-04-30T06:35:29;96998.16;;;13.67;100.00
6829;BME280;17930;48.592;8.868;2023-04-30T06:37:56;96997.81;;;13.73;100.00
6829;BME280;17930;48.592;8.868;2023-04-30T06:40:23;97002.53;;;13.34;100.00
6829;BME280;17930;48.592;8.868;2023-04-30T06:42:50;96993.19;;;13.29;100.00
6829;BME280;17930;48.592;8.868;2023-04-30T06:45:16;96995.38;;;13.22;100.00
6829;BME280;17930;48.592;8.868;2023-04-30T06:47:44;97001.63;;;13.44;100.00
6829;BME280;17930;48.592;8.868;2023-04-30T06:50:11;97005.41;;;13.56;100.00
6829;BME280;17930;48.592;8.868;2023-04-30T06:52:41;97007.16;;;13.61;100.00
6829;BME280;17930;48.592;8.868;2023-04-30T06:55:08;97009.31;;;13.40;100.00
6829;BME280;17930;48.592;8.868;2023-04-30T06:57:35;97002.13;;;13.64;100.00
6829;BME280;17930;48.592;8.868;2023-04-30T07:00:03;96998.63;;;13.87;100.00
6829;BME280;17930;48.592;8.868;2023-04-30T07:02:30;96999.13;;;13.89;100.00
6829;BME280;17930;48.592;8.868;2023-04-30T07:04:56;97008.22;;;13.78;100.00
6829;BME280;17930;48.592;8.868;2023-04-30T07:07:24;97002.63;;;13.84;100.00
6829;BME280;17930;48.592;8.868;2023-04-30T07:09:52;97010.56;;;13.61;100.00
6829;BME280;17930;48.592;8.868;2023-04-30T07:12:19;96999.44;;;13.51;100.00
6829;BME280;17930;48.592;8.868;2023-04-30T07:14:45;97004.72;;;13.28;100.00
6829;BME280;17930;48.592;8.868;2023-04-30T07:17:12;97000.16;;;13.75;100.00
6829;BME280;17930;48.592;8.868;2023-04-30T07:19:39;96992.88;;;14.03;100.00
6829;BME280;17930;48.592;8.868;2023-04-30T07:22:05;96994.66;;;14.53;100.00
6829;BME280;17930;48.592;8.868;2023-04-30T07:24:33;96994.88;;;14.70;100.00
6829;BME280;17930;48.592;8.868;2023-04-30T07:27:01;96997.81;;;14.95;100.00
6829;BME280;17930;48.592;8.868;2023-04-30T07:29:28;96982.66;;;15.19;100.00
6829;BME280;17930;48.592;8.868;2023-04-30T07:31:55;96997.13;;;15.16;100.00
6829;BME280;17930;48.592;8.868;2023-04-30T07:34:23;96982.59;;;15.81;100.00
6829;BME280;17930;48.592;8.868;2023-04-30T07:36:50;96988.22;;;16.61;100.00
6829;BME280;17930;48.592;8.868;2023-04-30T07:39:17;96978.25;;;17.95;100.00
6829;BME280;17930;48.592;8.868;2023-04-30T07:41:44;96983.22;;;17.79;100.00
6829;BME280;17930;48.592;8.868;2023-04-30T07:44:11;96985.72;;;17.76;100.00
6829;BME280;17930;48.592;8.868;2023-04-30T07:46:38;96981.91;;;18.52;100.00
6829;BME280;17930;48.592;8.868;2023-04-30T07:49:05;96978.31;;;19.52;100.00
6829;BME280;17930;48.592;8.868;2023-04-30T07:51:31;96974.22;;;20.47;100.00
6829;BME280;17930;48.592;8.868;2023-04-30T07:53:59;96976.88;;;20.15;100.00
6829;BME280;17930;48.592;8.868;2023-04-30T07:56:25;96970.25;;;20.41;100.00
6829;BME280;17930;48.592;8.868;2023-04-30T07:58:52;96969.75;;;20.83;100.00
6829;BME280;17930;48.592;8.868;2023-04-30T08:01:21;96965.91;;;20.81;100.00
6829;BME280;17930;48.592;8.868;2023-04-30T08:03:48;96976.88;;;20.59;100.00
6829;BME280;17930;48.592;8.868;2023-04-30T08:06:15;96973.97;;;21.32;100.00
6829;BME280;17930;48.592;8.868;2023-04-30T08:08:41;96972.66;;;20.46;97.94
6829;BME280;17930;48.592;8.868;2023-04-30T08:11:08;96980.59;;;19.82;98.82
6829;BME280;17930;48.592;8.868;2023-04-30T08:13:34;96982.69;;;19.27;100.00
6829;BME280;17930;48.592;8.868;2023-04-30T08:16:01;96981.56;;;19.57;100.00
6829;BME280;17930;48.592;8.868;2023-04-30T08:18:29;96989.03;;;18.98;100.00
6829;BME280;17930;48.592;8.868;2023-04-30T08:20:56;96983.22;;;18.75;100.00
6829;BME280;17930;48.592;8.868;2023-04-30T08:23:23;96994.72;;;18.17;100.00
6829;BME280;17930;48.592;8.868;2023-04-30T08:25:49;96992.06;;;17.58;100.00
6829;BME280;17930;48.592;8.868;2023-04-30T08:28:17;96987.09;;;17.56;100.00
6829;BME280;17930;48.592;8.868;2023-04-30T08:30:43;96992.44;;;17.18;100.00
6829;BME280;17930;48.592;8.868;2023-04-30T08:33:10;96994.81;;;17.28;100.00
6829;BME280;17930;48.592;8.868;2023-04-30T08:35:38;96998.22;;;17.28;100.00
6829;BME280;17930;48.592;8.868;2023-04-30T08:38:05;96998.59;;;16.96;100.00
6829;BME280;17930;48.592;8.868;2023-04-30T08:40:34;97002.41;;;16.91;100.00
6829;BME280;17930;48.592;8.868;2023-04-30T08:43:05;96994.25;;;16.62;100.00
6829;BME280;17930;48.592;8.868;2023-04-30T08:45:32;96994.97;;;16.24;100.00
6829;BME280;17930;48.592;8.868;2023-04-30T08:47:59;96992.75;;;16.17;100.00
6829;BME280;17930;48.592;8.868;2023-04-30T08:50:26;97002.72;;;16.50;100.00
6829;BME280;17930;48.592;8.868;2023-04-30T08:52:55;96993.03;;;16.68;100.00
6829;BME280;17930;48.592;8.868;2023-04-30T08:55:22;96994.31;;;16.79;100.00
6829;BME280;17930;48.592;8.868;2023-04-30T08:57:50;96994.88;;;17.06;100.00
6829;BME280;17930;48.592;8.868;2023-04-30T09:00:17;96996.56;;;17.02;100.00
6829;BME280;17930;48.592;8.868;2023-04-30T09:02:44;96993.59;;;17.34;100.00
6829;BME280;17930;48.592;8.868;2023-04-30T09:05:13;96999.44;;;16.75;100.00
6829;BME280;17930;48.592;8.868;2023-04-30T09:07:41;96998.56;;;16.88;100.00
6829;BME280;17930;48.592;8.868;2023-04-30T09:10:15;96987.84;;;17.48;100.00
6829;BME280;17930;48.592;8.868;2023-04-30T09:12:42;96986.75;;;18.50;100.00
6829;BME280;17930;48.592;8.868;2023-04-30T09:15:11;96975.84;;;18.89;100.00
6829;BME280;17930;48.592;8.868;2023-04-30T09:17:37;96985.88;;;17.96;100.00
6829;BME280;17930;48.592;8.868;2023-04-30T09:20:08;96991.13;;;17.71;100.00
6829;BME280;17930;48.592;8.868;2023-04-30T09:22:36;96993.41;;;17.22;100.00
6829;BME280;17930;48.592;8.868;2023-04-30T09:25:04;96989.56;;;17.70;100.00
6829;BME280;17930;48.592;8.868;2023-04-30T09:27:32;96988.66;;;17.49;100.00
6829;BME280;17930;48.592;8.868;2023-04-30T09:29:59;96996.59;;;17.74;100.00
6829;BME280;17930;48.592;8.868;2023-04-30T09:32:26;96997.53;;;17.14;100.00
6829;BME280;17930;48.592;8.868;2023-04-30T09:34:54;96995.47;;;17.42;100.00
6829;BME280;17930;48.592;8.868;2023-04-30T09:37:20;96995.31;;;17.46;100.00
6829;BME280;17930;48.592;8.868;2023-04-30T09:39:48;96996.91;;;17.64;100.00
6829;BME280;17930;48.592;8.868;2023-04-30T09:42:16;96995.97;;;17.94;100.00
6829;BME280;17930;48.592;8.868;2023-04-30T09:44:45;96996.72;;;17.86;100.00
6829;BME280;17930;48.592;8.868;2023-04-30T09:47:14;96994.84;;;17.95;100.00
6829;BME280;17930;48.592;8.868;2023-04-30T09:49:42;96996.41;;;17.79;100.00
6829;BME280;17930;48.592;8.868;2023-04-30T09:52:09;97000.00;;;17.83;100.00
6829;BME280;17930;48.592;8.868;2023-04-30T09:54:37;96994.41;;;17.76;100.00
6829;BME280;17930;48.592;8.868;2023-04-30T09:57:03;96996.28;;;17.67;100.00
6829;BME280;17930;48.592;8.868;2023-04-30T09:59:34;97001.84;;;17.57;100.00
6829;BME280;17930;48.592;8.868;2023-04-30T10:02:04;96999.38;;;17.69;100.00
6829;BME280;17930;48.592;8.868;2023-04-30T10:04:33;96989.44;;;17.75;100.00
6829;BME280;17930;48.592;8.868;2023-04-30T10:07:02;96982.59;;;17.65;100.00
6829;BME280;17930;48.592;8.868;2023-04-30T10:09:36;96979.63;;;18.00;98.91
6829;BME280;17930;48.592;8.868;2023-04-30T10:12:07;96978.25;;;18.20;100.00
6829;BME280;17930;48.592;8.868;2023-04-30T10:14:43;96985.50;;;18.48;100.00
6829;BME280;17930;48.592;8.868;2023-04-30T10:17:15;96985.41;;;18.11;100.00
6829;BME280;17930;48.592;8.868;2023-04-30T10:19:45;96984.78;;;17.89;100.00
6829;BME280;17930;48.592;8.868;2023-04-30T10:22:21;96976.88;;;17.89;100.00
6829;BME280;17930;48.592;8.868;2023-04-30T10:24:49;96986.66;;;17.71;100.00
6829;BME280;17930;48.592;8.868;2023-04-30T10:27:17;96985.06;;;17.45;100.00
6829;BME280;17930;48.592;8.868;2023-04-30T10:29:45;96979.50;;;17.46;100.00
6829;BME280;17930;48.592;8.868;2023-04-30T10:32:13;96971.41;;;17.77;100.00
6829;BME280;17930;48.592;8.868;2023-04-30T10:34:59;96976.88;;;17.63;100.00
6829;BME280;17930;48.592;8.868;2023-04-30T10:37:39;96970.16;;;17.24;100.00
6829;BME280;17930;48.592;8.868;2023-04-30T10:40:10;96979.56;;;17.16;100.00
6829;BME280;17930;48.592;8.868;2023-04-30T10:42:36;96968.94;;;17.63;100.00
6829;BME280;17930;48.592;8.868;2023-04-30T10:45:03;96968.47;;;17.87;100.00
6829;BME280;17930;48.592;8.868;2023-04-30T10:47:31;96961.97;;;17.76;100.00
6829;BME280;17930;48.592;8.868;2023-04-30T10:50:04;96967.22;;;17.34;100.00
6829;BME280;17930;48.592;8.868;2023-04-30T10:52:33;96963.63;;;17.30;100.00
6829;BME280;17930;48.592;8.868;2023-04-30T10:55:04;96961.97;;;17.59;100.00
6829;BME280;17930;48.592;8.868;2023-04-30T10:57:39;96959.63;;;17.91;100.00
6829;BME280;17930;48.592;8.868;2023-04-30T11:00:19;96960.84;;;18.02;100.00
6829;BME280;17930;48.592;8.868;2023-04-30T11:02:47;96954.16;;;18.21;94.60
6829;BME280;17930;48.592;8.868;2023-04-30T11:05:15;96951.22;;;18.06;94.43
6829;BME280;17930;48.592;8.868;2023-04-30T11:07:46;96949.66;;;18.05;92.08
6829;BME280;17930;48.592;8.868;2023-04-30T11:10:14;96947.66;;;17.77;96.31
6829;BME280;17930;48.592;8.868;2023-04-30T11:12:47;96955.25;;;17.95;96.08
6829;BME280;17930;48.592;8.868;2023-04-30T11:15:16;96961.66;;;17.60;95.47
6829;BME280;17930;48.592;8.868;2023-04-30T11:17:44;96955.59;;;17.68;99.06
6829;BME280;17930;48.592;8.868;2023-04-30T11:20:15;96950.94;;;17.65;96.85
6829;BME280;17930;48.592;8.868;2023-04-30T11:22:44;96951.84;;;17.36;96.86
6829;BME280;17930;48.592;8.868;2023-04-30T11:25:11;96961.44;;;17.15;96.90
6829;BME280;17930;48.592;8.868;2023-04-30T11:27:40;96954.25;;;17.07;97.71
6829;BME280;17930;48.592;8.868;2023-04-30T11:30:11;96954.66;;;17.31;96.93
6829;BME280;17930;48.592;8.868;2023-04-30T11:32:40;96946.94;;;16.95;99.58
6829;BME280;17930;48.592;8.868;2023-04-30T11:35:07;96949.78;;;17.16;100.00
6829;BME280;17930;48.592;8.868;2023-04-30T11:37:36;96944.25;;;17.51;98.03
6829;BME280;17930;48.592;8.868;2023-04-30T11:40:07;96918.47;;;17.98;95.32
6829;BME280;17930;48.592;8.868;2023-04-30T11:42:36;96925.44;;;18.20;91.46
6829;BME280;17930;48.592;8.868;2023-04-30T11:45:05;96923.63;;;19.15;90.42
6829;BME280;17930;48.592;8.868;2023-04-30T11:47:39;96917.22;;;19.77;85.19
6829;BME280;17930;48.592;8.868;2023-04-30T11:50:07;96924.81;;;19.66;82.35
6829;BME280;17930;48.592;8.868;2023-04-30T11:52:36;96922.38;;;20.26;79.89
6829;BME280;17930;48.592;8.868;2023-04-30T11:55:12;96915.78;;;20.44;77.33
6829;BME280;17930;48.592;8.868;2023-04-30T11:57:41;96915.38;;;20.65;75.91
6829;BME280;17930;48.592;8.868;2023-04-30T12:00:13;96919.16;;;20.76;74.04
6829;BME280;17930;48.592;8.868;2023-04-30T12:02:41;96918.81;;;20.10;73.16
6829;BME280;17930;48.592;8.868;2023-04-30T12:05:12;96920.59;;;20.18;75.78
6829;BME280;17930;48.592;8.868;2023-04-30T12:07:45;96918.09;;;19.89;74.02
6829;BME280;17930;48.592;8.868;2023-04-30T12:10:13;96912.13;;;19.92;74.08
6829;BME280;17930;48.592;8.868;2023-04-30T12:12:41;96906.44;;;20.02;72.04
6829;BME280;17930;48.592;8.868;2023-04-30T12:15:15;96913.00;;;20.28;73.29
6829;BME280;17930;48.592;8.868;2023-04-30T12:17:42;96899.44;;;20.30;73.08
6829;BME280;17930;48.592;8.868;2023-04-30T12:20:10;96909.72;;;20.55;73.86
6829;BME280;17930;48.592;8.868;2023-04-30T12:22:39;96910.09;;;20.77;72.17
6829;BME280;17930;48.592;8.868;2023-04-30T12:25:11;96913.88;;;20.20;71.60
6829;BME280;17930;48.592;8.868;2023-04-30T12:27:39;96910.00;;;19.65;73.45
6829;BME280;17930;48.592;8.868;2023-04-30T12:30:06;96915.94;;;19.42;76.23
6829;BME280;17930;48.592;8.868;2023-04-30T12:32:41;96910.50;;;19.79;75.92
6829;BME280;17930;48.592;8.868;2023-04-30T12:35:12;96914.00;;;19.71;73.85
6829;BME280;17930;48.592;8.868;2023-04-30T12:37:43;96913.00;;;20.28;72.06
6829;BME280;17930;48.592;8.868;2023-04-30T12:40:12;96905.28;;;19.71;74.12
6829;BME280;17930;48.592;8.868;2023-04-30T12:42:40;96898.94;;;19.84;71.89
6829;BME280;17930;48.592;8.868;2023-04-30T12:45:08;96895.03;;;20.46;71.85
6829;BME280;17930;48.592;8.868;2023-04-30T12:47:37;96893.84;;;21.42;69.42
6829;BME280;17930;48.592;8.868;2023-04-30T12:50:08;96879.81;;;22.69;65.02
6829;BME280;17930;48.592;8.868;2023-04-30T12:52:34;96879.00;;;21.53;65.35
6829;BME280;17930;48.592;8.868;2023-04-30T12:55:15;96873.13;;;21.86;67.62
6829;BME280;17930;48.592;8.868;2023-04-30T12:58:07;96873.09;;;22.75;64.09
6829;BME280;17930;48.592;8.868;2023-04-30T13:00:44;96856.28;;;24.37;58.32
6829;BME280;17930;48.592;8.868;2023-04-30T13:03:11;96854.31;;;24.34;58.93
6829;BME280;17930;48.592;8.868;2023-04-30T13:05:38;96857.41;;;23.38;60.23
6829;BME280;17930;48.592;8.868;2023-04-30T13:08:05;96861.66;;;22.40;61.82